sensor_id;sensor_type;location;lat;lon;timestamp;P1;durP1;ratioP1;P2;durP2;ratioP2
4424;SDS011;2225;53.568;13.266;2023-12-07T00:02:03;203.53;;;74.80;;
4424;SDS011;2225;53.568;13.266;2023-12-07T00:04:31;218.60;;;78.07;;
4424;SDS011;2225;53.568;13.266;2023-12-07T00:06:58;212.53;;;74.47;;
4424;SDS011;2225;53.568;13.266;2023-12-07T00:09:25;211.30;;;80.80;;
4424;SDS011;2225;53.568;13.266;2023-12-07T00:11:52;215.73;;;75.67;;
4424;SDS011;2225;53.568;13.266;2023-12-07T00:14:19;213.90;;;78.60;;
4424;SDS011;2225;53.568;13.266;2023-12-07T00:16:46;217.67;;;74.97;;
4424;SDS011;2225;53.568;13.266;2023-12-07T00:19:13;223.50;;;81.73;;
4424;SDS011;2225;53.568;13.266;2023-12-07T00:21:40;235.13;;;79.50;;
4424;SDS011;2225;53.568;13.266;2023-12-07T00:24:07;219.13;;;77.77;;
4424;SDS011;2225;53.568;13.266;2023-12-07T00:26:34;231.07;;;81.77;;
4424;SDS011;2225;53.568;13.266;2023-12-07T00:29:01;220.00;;;81.33;;
4424;SDS011;2225;53.568;13.266;2023-12-07T00:31:28;241.97;;;80.43;;
4424;SDS011;2225;53.568;13.266;2023-12-07T00:33:55;239.03;;;79.97;;
4424;SDS011;2225;53.568;13.266;2023-12-07T00:36:23;230.43;;;81.70;;
4424;SDS011;2225;53.568;13.266;2023-12-07T00:38:50;227.43;;;79.37;;
4424;SDS011;2225;53.568;13.266;2023-12-07T00:41:17;213.73;;;78.50;;
4424;SDS011;2225;53.568;13.266;2023-12-07T00:43:44;230.73;;;82.27;;
4424;SDS011;2225;53.568;13.266;2023-12-07T00:46:11;228.13;;;81.63;;
4424;SDS011;2225;53.568;13.266;2023-12-07T00:48:38;224.60;;;82.17;;
4424;SDS011;2225;53.568;13.266;2023-12-07T00:51:05;232.83;;;78.17;;
4424;SDS011;2225;53.568;13.266;2023-12-07T00:53:32;249.77;;;86.43;;
4424;SDS011;2225;53.568;13.266;2023-12-07T00:55:59;237.60;;;79.10;;
4424;SDS011;2225;53.568;13.266;2023-12-07T00:58:26;239.87;;;78.93;;
4424;SDS011;2225;53.568;13.266;2023-12-07T01:00:53;210.97;;;77.30;;
4424;SDS011;2225;53.568;13.266;2023-12-07T01:03:20;233.10;;;78.03;;
4424;SDS011;2225;53.568;13.266;2023-12-07T01:05:47;219.13;;;78.67;;
4424;SDS011;2225;53.568;13.266;2023-12-07T01:08:14;244.07;;;82.90;;
4424;SDS011;2225;53.568;13.266;2023-12-07T01:10:41;234.47;;;79.43;;
4424;SDS011;2225;53.568;13.266;2023-12-07T01:13:08;248.50;;;79.50;;
4424;SDS011;2225;53.568;13.266;2023-12-07T01:15:35;232.07;;;80.53;;
4424;SDS011;2225;53.568;13.266;2023-12-07T01:18:02;248.80;;;87.17;;
4424;SDS011;2225;53.568;13.266;2023-12-07T01:20:29;233.17;;;82.80;;
4424;SDS011;2225;53.568;13.266;2023-12-07T01:22:56;228.03;;;76.77;;
4424;SDS011;2225;53.568;13.266;2023-12-07T01:25:23;246.77;;;80.53;;
4424;SDS011;2225;53.568;13.266;2023-12-07T01:27:50;250.67;;;75.20;;
4424;SDS011;2225;53.568;13.266;2023-12-07T01:30:17;213.77;;;75.23;;
4424;SDS011;2225;53.568;13.266;2023-12-07T01:32:44;256.13;;;81.47;;
4424;SDS011;2225;53.568;13.266;2023-12-07T01:35:11;242.80;;;78.90;;
4424;SDS011;2225;53.568;13.266;2023-12-07T01:37:38;245.73;;;79.20;;
4424;SDS011;2225;53.568;13.266;2023-12-07T01:40:06;211.70;;;73.53;;
4424;SDS011;2225;53.568;13.266;2023-12-07T01:42:37;237.37;;;79.27;;
4424;SDS011;2225;53.568;13.266;2023-12-07T01:45:05;212.63;;;73.17;;
4424;SDS011;2225;53.568;13.266;2023-12-07T01:47:33;235.93;;;78.03;;
4424;SDS011;2225;53.568;13.266;2023-12-07T01:50:02;229.03;;;76.73;;
4424;SDS011;2225;53.568;13.266;2023-12-07T01:52:34;262.90;;;75.73;;
4424;SDS011;2225;53.568;13.266;2023-12-07T01:55:06;248.67;;;75.27;;
4424;SDS011;2225;53.568;13.266;2023-12-07T01:57:35;241.13;;;77.50;;
4424;SDS011;2225;53.568;13.266;2023-12-07T02:00:03;229.03;;;75.40;;
4424;SDS011;2225;53.568;13.266;2023-12-07T02:02:31;221.87;;;72.80;;
4424;SDS011;2225;53.568;13.266;2023-12-07T02:04:59;240.93;;;75.73;;
4424;SDS011;2225;53.568;13.266;2023-12-07T02:07:27;230.97;;;74.10;;
4424;SDS011;2225;53.568;13.266;2023-12-07T02:09:54;220.87;;;75.67;;
4424;SDS011;2225;53.568;13.266;2023-12-07T02:12:21;227.43;;;75.60;;
4424;SDS011;2225;53.568;13.266;2023-12-07T02:14:48;213.00;;;67.37;;
4424;SDS011;2225;53.568;13.266;2023-12-07T02:20:21;186.00;;;61.90;;
4424;SDS011;2225;53.568;13.266;2023-12-07T02:23:01;190.43;;;60.80;;
4424;SDS011;2225;53.568;13.266;2023-12-07T02:26:05;191.43;;;61.93;;
4424;SDS011;2225;53.568;13.266;2023-12-07T02:28:29;173.93;;;60.07;;
4424;SDS011;2225;53.568;13.266;2023-12-07T02:30:56;175.00;;;57.77;;
4424;SDS011;2225;53.568;13.266;2023-12-07T02:33:23;171.27;;;58.40;;
4424;SDS011;2225;53.568;13.266;2023-12-07T02:35:50;157.60;;;55.53;;
4424;SDS011;2225;53.568;13.266;2023-12-07T02:38:17;175.90;;;59.17;;
4424;SDS011;2225;53.568;13.266;2023-12-07T02:40:45;176.03;;;58.57;;
4424;SDS011;2225;53.568;13.266;2023-12-07T02:43:14;188.23;;;61.60;;
4424;SDS011;2225;53.568;13.266;2023-12-07T02:45:41;221.70;;;71.20;;
4424;SDS011;2225;53.568;13.266;2023-12-07T02:48:08;205.23;;;69.37;;
4424;SDS011;2225;53.568;13.266;2023-12-07T02:50:35;204.57;;;68.47;;
4424;SDS011;2225;53.568;13.266;2023-12-07T02:53:02;206.00;;;70.87;;
4424;SDS011;2225;53.568;13.266;2023-12-07T02:55:29;202.30;;;70.37;;
4424;SDS011;2225;53.568;13.266;2023-12-07T02:57:56;201.10;;;67.47;;
4424;SDS011;2225;53.568;13.266;2023-12-07T03:00:24;210.17;;;65.80;;
4424;SDS011;2225;53.568;13.266;2023-12-07T03:02:51;205.60;;;65.87;;
4424;SDS011;2225;53.568;13.266;2023-12-07T03:05:18;182.03;;;64.50;;
4424;SDS011;2225;53.568;13.266;2023-12-07T03:07:46;185.80;;;68.27;;
4424;SDS011;2225;53.568;13.266;2023-12-07T03:10:13;200.57;;;64.30;;
4424;SDS011;2225;53.568;13.266;2023-12-07T03:12:40;132.97;;;49.93;;
4424;SDS011;2225;53.568;13.266;2023-12-07T03:15:07;104.67;;;39.90;;
4424;SDS011;2225;53.568;13.266;2023-12-07T03:17:36;88.03;;;31.47;;
4424;SDS011;2225;53.568;13.266;2023-12-07T03:20:03;66.23;;;27.17;;
4424;SDS011;2225;53.568;13.266;2023-12-07T03:22:32;61.50;;;27.20;;
4424;SDS011;2225;53.568;13.266;2023-12-07T03:25:00;57.80;;;23.93;;
4424;SDS011;2225;53.568;13.266;2023-12-07T03:27:27;57.20;;;23.47;;
4424;SDS011;2225;53.568;13.266;2023-12-07T03:29:55;55.47;;;24.07;;
4424;SDS011;2225;53.568;13.266;2023-12-07T03:32:22;58.43;;;24.57;;
4424;SDS011;2225;53.568;13.266;2023-12-07T03:34:49;61.30;;;24.63;;
4424;SDS011;2225;53.568;13.266;2023-12-07T03:37:16;56.90;;;24.33;;
4424;SDS011;2225;53.568;13.266;2023-12-07T03:39:43;53.40;;;23.23;;
4424;SDS011;2225;53.568;13.266;2023-12-07T03:42:10;55.27;;;24.60;;
4424;SDS011;2225;53.568;13.266;2023-12-07T03:44:57;56.53;;;23.63;;
4424;SDS011;2225;53.568;13.266;2023-12-07T03:47:24;57.30;;;23.27;;
4424;SDS011;2225;53.568;13.266;2023-12-07T03:49:51;49.20;;;22.83;;
4424;SDS011;2225;53.568;13.266;2023-12-07T03:52:18;61.80;;;23.30;;
4424;SDS011;2225;53.568;13.266;2023-12-07T03:54:45;56.83;;;22.57;;
4424;SDS011;2225;53.568;13.266;2023-12-07T03:57:11;55.67;;;24.23;;
4424;SDS011;2225;53.568;13.266;2023-12-07T03:59:38;52.10;;;21.70;;
4424;SDS011;2225;53.568;13.266;2023-12-07T04:02:05;48.33;;;19.80;;
4424;SDS011;2225;53.568;13.266;2023-12-07T04:04:33;53.33;;;21.93;;
4424;SDS011;2225;53.568;13.266;2023-12-07T04:07:00;52.73;;;23.30;;
4424;SDS011;2225;53.568;13.266;2023-12-07T04:09:27;52.30;;;21.83;;
4424;SDS011;2225;53.568;13.266;2023-12-07T04:11:54;55.47;;;23.77;;
4424;SDS011;2225;53.568;13.266;2023-12-07T04:14:21;59.90;;;23.47;;
4424;SDS011;2225;53.568;13.266;2023-12-07T04:16:48;49.10;;;21.60;;
4424;SDS011;2225;53.568;13.266;2023-12-07T04:19:15;54.10;;;21.90;;
4424;SDS011;2225;53.568;13.266;2023-12-07T04:21:42;50.33;;;21.60;;
4424;SDS011;2225;53.568;13.266;2023-12-07T04:24:09;49.33;;;21.07;;
4424;SDS011;2225;53.568;13.266;2023-12-07T04:26:36;42.80;;;20.43;;
4424;SDS011;2225;53.568;13.266;2023-12-07T04:29:03;47.40;;;21.13;;
4424;SDS011;2225;53.568;13.266;2023-12-07T04:31:30;51.13;;;20.50;;
4424;SDS011;2225;53.568;13.266;2023-12-07T04:33:57;66.47;;;22.00;;
4424;SDS011;2225;53.568;13.266;2023-12-07T04:36:25;64.33;;;21.30;;
4424;SDS011;2225;53.568;13.266;2023-12-07T04:38:52;56.73;;;22.70;;
4424;SDS011;2225;53.568;13.266;2023-12-07T04:41:19;50.70;;;21.93;;
4424;SDS011;2225;53.568;13.266;2023-12-07T04:43:46;53.97;;;23.10;;
4424;SDS011;2225;53.568;13.266;2023-12-07T04:46:13;44.83;;;21.47;;
4424;SDS011;2225;53.568;13.266;2023-12-07T04:48:42;50.20;;;21.97;;
4424;SDS011;2225;53.568;13.266;2023-12-07T04:51:09;46.97;;;21.33;;
4424;SDS011;2225;53.568;13.266;2023-12-07T04:53:36;58.00;;;23.10;;
4424;SDS011;2225;53.568;13.266;2023-12-07T04:56:03;61.10;;;22.40;;
4424;SDS011;2225;53.568;13.266;2023-12-07T04:58:31;53.17;;;22.03;;
4424;SDS011;2225;53.568;13.266;2023-12-07T05:00:58;48.77;;;22.17;;
4424;SDS011;2225;53.568;13.266;2023-12-07T05:03:25;48.00;;;20.20;;
4424;SDS011;2225;53.568;13.266;2023-12-07T05:05:53;46.07;;;20.23;;
4424;SDS011;2225;53.568;13.266;2023-12-07T05:08:20;47.03;;;19.30;;
4424;SDS011;2225;53.568;13.266;2023-12-07T05:10:46;45.57;;;20.30;;
4424;SDS011;2225;53.568;13.266;2023-12-07T05:13:13;41.53;;;18.50;;
4424;SDS011;2225;53.568;13.266;2023-12-07T05:15:40;47.00;;;20.50;;
4424;SDS011;2225;53.568;13.266;2023-12-07T05:18:07;43.50;;;20.10;;
4424;SDS011;2225;53.568;13.266;2023-12-07T05:20:34;46.50;;;18.90;;
4424;SDS011;2225;53.568;13.266;2023-12-07T05:23:05;43.30;;;19.37;;
4424;SDS011;2225;53.568;13.266;2023-12-07T05:25:32;49.77;;;19.00;;
4424;SDS011;2225;53.568;13.266;2023-12-07T05:27:59;43.20;;;19.40;;
4424;SDS011;2225;53.568;13.266;2023-12-07T05:30:26;50.40;;;20.20;;
4424;SDS011;2225;53.568;13.266;2023-12-07T05:32:54;48.37;;;18.67;;
4424;SDS011;2225;53.568;13.266;2023-12-07T05:35:21;48.97;;;20.10;;
4424;SDS011;2225;53.568;13.266;2023-12-07T05:37:48;51.97;;;20.57;;
4424;SDS011;2225;53.568;13.266;2023-12-07T05:40:15;46.10;;;20.27;;
4424;SDS011;2225;53.568;13.266;2023-12-07T05:42:42;51.07;;;20.77;;
4424;SDS011;2225;53.568;13.266;2023-12-07T05:45:09;62.13;;;21.30;;
4424;SDS011;2225;53.568;13.266;2023-12-07T05:47:36;56.20;;;21.37;;
4424;SDS011;2225;53.568;13.266;2023-12-07T05:50:03;64.90;;;21.60;;
4424;SDS011;2225;53.568;13.266;2023-12-07T05:52:30;51.13;;;19.23;;
4424;SDS011;2225;53.568;13.266;2023-12-07T05:54:57;52.50;;;21.60;;
4424;SDS011;2225;53.568;13.266;2023-12-07T05:57:24;44.33;;;18.83;;
4424;SDS011;2225;53.568;13.266;2023-12-07T05:59:51;53.93;;;20.53;;
4424;SDS011;2225;53.568;13.266;2023-12-07T06:02:18;55.57;;;20.33;;
4424;SDS011;2225;53.568;13.266;2023-12-07T06:04:45;55.47;;;20.50;;
4424;SDS011;2225;53.568;13.266;2023-12-07T06:07:12;65.80;;;22.43;;
4424;SDS011;2225;53.568;13.266;2023-12-07T06:09:39;54.70;;;20.73;;
4424;SDS011;2225;53.568;13.266;2023-12-07T06:12:07;62.23;;;22.27;;
4424;SDS011;2225;53.568;13.266;2023-12-07T06:14:34;52.40;;;20.07;;
4424;SDS011;2225;53.568;13.266;2023-12-07T06:17:01;73.83;;;22.00;;
4424;SDS011;2225;53.568;13.266;2023-12-07T06:19:28;56.60;;;20.63;;
4424;SDS011;2225;53.568;13.266;2023-12-07T06:21:55;70.50;;;22.40;;
4424;SDS011;2225;53.568;13.266;2023-12-07T06:24:23;55.83;;;20.20;;
4424;SDS011;2225;53.568;13.266;2023-12-07T06:26:51;49.30;;;18.90;;
4424;SDS011;2225;53.568;13.266;2023-12-07T06:29:18;55.77;;;20.03;;
4424;SDS011;2225;53.568;13.266;2023-12-07T06:31:45;46.47;;;18.73;;
4424;SDS011;2225;53.568;13.266;2023-12-07T06:34:12;51.30;;;19.53;;
4424;SDS011;2225;53.568;13.266;2023-12-07T06:36:39;50.60;;;18.77;;
4424;SDS011;2225;53.568;13.266;2023-12-07T06:39:06;47.27;;;18.90;;
4424;SDS011;2225;53.568;13.266;2023-12-07T06:41:33;52.33;;;20.37;;
4424;SDS011;2225;53.568;13.266;2023-12-07T06:44:00;56.30;;;21.80;;
4424;SDS011;2225;53.568;13.266;2023-12-07T06:46:27;54.80;;;19.27;;
4424;SDS011;2225;53.568;13.266;2023-12-07T06:48:54;71.93;;;22.00;;
4424;SDS011;2225;53.568;13.266;2023-12-07T06:51:21;66.13;;;19.93;;
4424;SDS011;2225;53.568;13.266;2023-12-07T06:53:48;59.57;;;21.20;;
4424;SDS011;2225;53.568;13.266;2023-12-07T06:56:14;61.23;;;20.97;;
4424;SDS011;2225;53.568;13.266;2023-12-07T06:58:41;54.73;;;21.00;;
4424;SDS011;2225;53.568;13.266;2023-12-07T07:01:08;59.33;;;21.97;;
4424;SDS011;2225;53.568;13.266;2023-12-07T07:03:35;51.13;;;19.63;;
4424;SDS011;2225;53.568;13.266;2023-12-07T07:06:02;61.57;;;21.30;;
4424;SDS011;2225;53.568;13.266;2023-12-07T07:08:30;62.63;;;23.23;;
4424;SDS011;2225;53.568;13.266;2023-12-07T07:10:57;59.33;;;23.03;;
4424;SDS011;2225;53.568;13.266;2023-12-07T07:13:24;64.77;;;23.30;;
4424;SDS011;2225;53.568;13.266;2023-12-07T07:15:51;59.27;;;21.03;;
4424;SDS011;2225;53.568;13.266;2023-12-07T07:18:17;51.13;;;21.63;;
4424;SDS011;2225;53.568;13.266;2023-12-07T07:20:45;49.43;;;20.90;;
4424;SDS011;2225;53.568;13.266;2023-12-07T07:23:12;51.83;;;22.73;;
4424;SDS011;2225;53.568;13.266;2023-12-07T07:25:38;57.60;;;22.37;;
4424;SDS011;2225;53.568;13.266;2023-12-07T07:28:06;55.03;;;23.93;;
4424;SDS011;2225;53.568;13.266;2023-12-07T07:30:34;53.87;;;21.50;;
4424;SDS011;2225;53.568;13.266;2023-12-07T07:33:01;49.13;;;21.20;;
4424;SDS011;2225;53.568;13.266;2023-12-07T07:35:27;47.13;;;21.47;;
4424;SDS011;2225;53.568;13.266;2023-12-07T07:37:55;52.87;;;20.83;;
4424;SDS011;2225;53.568;13.266;2023-12-07T07:40:22;49.13;;;21.33;;
4424;SDS011;2225;53.568;13.266;2023-12-07T07:42:50;54.40;;;21.33;;
4424;SDS011;2225;53.568;13.266;2023-12-07T07:45:17;52.00;;;21.97;;
4424;SDS011;2225;53.568;13.266;2023-12-07T07:47:45;43.00;;;20.50;;
4424;SDS011;2225;53.568;13.266;2023-12-07T07:50:12;43.07;;;19.57;;
4424;SDS011;2225;53.568;13.266;2023-12-07T07:52:39;52.33;;;21.47;;
4424;SDS011;2225;53.568;13.266;2023-12-07T07:55:07;48.40;;;20.80;;
4424;SDS011;2225;53.568;13.266;2023-12-07T07:57:34;45.23;;;20.30;;
4424;SDS011;2225;53.568;13.266;2023-12-07T08:00:01;49.60;;;22.83;;
4424;SDS011;2225;53.568;13.266;2023-12-07T08:02:31;49.03;;;21.93;;
4424;SDS011;2225;53.568;13.266;2023-12-07T08:04:58;43.47;;;20.00;;
4424;SDS011;2225;53.568;13.266;2023-12-07T08:07:25;47.00;;;20.57;;
4424;SDS011;2225;53.568;13.266;2023-12-07T08:09:53;45.60;;;19.27;;
4424;SDS011;2225;53.568;13.266;2023-12-07T08:12:20;39.87;;;19.87;;
4424;SDS011;2225;53.568;13.266;2023-12-07T08:14:49;44.17;;;19.50;;
4424;SDS011;2225;53.568;13.266;2023-12-07T08:17:16;45.73;;;18.97;;
4424;SDS011;2225;53.568;13.266;2023-12-07T08:19:44;48.90;;;20.20;;
4424;SDS011;2225;53.568;13.266;2023-12-07T08:22:11;47.17;;;20.30;;
4424;SDS011;2225;53.568;13.266;2023-12-07T08:24:39;45.30;;;21.57;;
4424;SDS011;2225;53.568;13.266;2023-12-07T08:27:06;54.87;;;21.70;;
4424;SDS011;2225;53.568;13.266;2023-12-07T08:29:33;50.20;;;22.53;;
4424;SDS011;2225;53.568;13.266;2023-12-07T08:32:01;53.77;;;22.37;;
4424;SDS011;2225;53.568;13.266;2023-12-07T08:34:28;49.77;;;21.60;;
4424;SDS011;2225;53.568;13.266;2023-12-07T08:36:55;47.87;;;20.77;;
4424;SDS011;2225;53.568;13.266;2023-12-07T08:39:23;51.33;;;22.40;;
4424;SDS011;2225;53.568;13.266;2023-12-07T08:41:51;52.77;;;21.93;;
4424;SDS011;2225;53.568;13.266;2023-12-07T08:44:18;59.43;;;22.97;;
4424;SDS011;2225;53.568;13.266;2023-12-07T08:46:45;49.60;;;20.80;;
4424;SDS011;2225;53.568;13.266;2023-12-07T08:49:12;47.00;;;20.37;;
4424;SDS011;2225;53.568;13.266;2023-12-07T08:51:40;50.13;;;22.70;;
4424;SDS011;2225;53.568;13.266;2023-12-07T08:54:26;50.80;;;21.90;;
4424;SDS011;2225;53.568;13.266;2023-12-07T08:56:53;51.20;;;22.37;;
4424;SDS011;2225;53.568;13.266;2023-12-07T08:59:21;53.97;;;22.83;;
4424;SDS011;2225;53.568;13.266;2023-12-07T09:01:49;49.20;;;22.00;;
4424;SDS011;2225;53.568;13.266;2023-12-07T09:04:16;50.13;;;20.43;;
4424;SDS011;2225;53.568;13.266;2023-12-07T09:06:44;51.10;;;21.97;;
4424;SDS011;2225;53.568;13.266;2023-12-07T09:09:11;50.57;;;22.57;;
4424;SDS011;2225;53.568;13.266;2023-12-07T09:11:38;49.23;;;22.83;;
4424;SDS011;2225;53.568;13.266;2023-12-07T09:14:05;52.00;;;21.90;;
4424;SDS011;2225;53.568;13.266;2023-12-07T09:16:32;46.57;;;22.10;;
4424;SDS011;2225;53.568;13.266;2023-12-07T09:18:59;48.23;;;21.30;;
4424;SDS011;2225;53.568;13.266;2023-12-07T09:21:26;44.80;;;20.07;;
4424;SDS011;2225;53.568;13.266;2023-12-07T09:23:52;48.97;;;21.97;;
4424;SDS011;2225;53.568;13.266;2023-12-07T09:26:19;52.47;;;22.07;;
4424;SDS011;2225;53.568;13.266;2023-12-07T09:28:46;48.10;;;21.17;;
4424;SDS011;2225;53.568;13.266;2023-12-07T09:31:14;51.70;;;24.87;;
4424;SDS011;2225;53.568;13.266;2023-12-07T09:33:43;60.67;;;22.07;;
4424;SDS011;2225;53.568;13.266;2023-12-07T09:36:10;54.70;;;24.07;;
4424;SDS011;2225;53.568;13.266;2023-12-07T09:38:37;53.23;;;23.20;;
4424;SDS011;2225;53.568;13.266;2023-12-07T09:41:04;45.77;;;22.20;;
4424;SDS011;2225;53.568;13.266;2023-12-07T09:43:31;50.17;;;22.47;;
4424;SDS011;2225;53.568;13.266;2023-12-07T09:45:58;48.80;;;22.40;;
4424;SDS011;2225;53.568;13.266;2023-12-07T09:48:26;48.90;;;21.27;;
4424;SDS011;2225;53.568;13.266;2023-12-07T09:50:54;46.20;;;21.90;;
4424;SDS011;2225;53.568;13.266;2023-12-07T09:53:23;52.00;;;22.27;;
4424;SDS011;2225;53.568;13.266;2023-12-07T09:55:50;48.70;;;21.30;;
4424;SDS011;2225;53.568;13.266;2023-12-07T09:58:17;49.13;;;22.63;;
4424;SDS011;2225;53.568;13.266;2023-12-07T10:01:00;51.80;;;22.00;;
4424;SDS011;2225;53.568;13.266;2023-12-07T10:03:27;46.97;;;22.07;;
4424;SDS011;2225;53.568;13.266;2023-12-07T10:05:58;48.00;;;22.70;;
4424;SDS011;2225;53.568;13.266;2023-12-07T10:08:27;49.07;;;23.30;;
4424;SDS011;2225;53.568;13.266;2023-12-07T10:11:07;51.33;;;23.43;;
4424;SDS011;2225;53.568;13.266;2023-12-07T10:13:36;51.77;;;23.30;;
4424;SDS011;2225;53.568;13.266;2023-12-07T10:16:05;55.50;;;23.63;;
4424;SDS011;2225;53.568;13.266;2023-12-07T10:18:41;56.57;;;25.20;;
4424;SDS011;2225;53.568;13.266;2023-12-07T10:21:10;48.13;;;21.97;;
4424;SDS011;2225;53.568;13.266;2023-12-07T10:23:38;56.10;;;22.50;;
4424;SDS011;2225;53.568;13.266;2023-12-07T10:26:09;56.70;;;23.90;;
4424;SDS011;2225;53.568;13.266;2023-12-07T10:28:37;52.13;;;23.27;;
4424;SDS011;2225;53.568;13.266;2023-12-07T10:31:08;47.23;;;22.33;;
4424;SDS011;2225;53.568;13.266;2023-12-07T10:33:38;50.07;;;22.97;;
4424;SDS011;2225;53.568;13.266;2023-12-07T10:36:06;54.10;;;23.23;;
4424;SDS011;2225;53.568;13.266;2023-12-07T10:38:33;56.50;;;24.33;;
4424;SDS011;2225;53.568;13.266;2023-12-07T10:41:04;57.23;;;24.33;;
4424;SDS011;2225;53.568;13.266;2023-12-07T10:43:35;53.97;;;23.33;;
4424;SDS011;2225;53.568;13.266;2023-12-07T10:46:04;61.20;;;24.63;;
4424;SDS011;2225;53.568;13.266;2023-12-07T10:48:32;57.93;;;25.00;;
4424;SDS011;2225;53.568;13.266;2023-12-07T10:51:00;51.60;;;23.53;;
4424;SDS011;2225;53.568;13.266;2023-12-07T10:53:37;54.43;;;23.43;;
4424;SDS011;2225;53.568;13.266;2023-12-07T10:56:10;61.00;;;25.30;;
4424;SDS011;2225;53.568;13.266;2023-12-07T10:58:42;53.07;;;24.23;;
4424;SDS011;2225;53.568;13.266;2023-12-07T11:01:11;55.90;;;25.80;;
4424;SDS011;2225;53.568;13.266;2023-12-07T11:03:41;54.50;;;21.80;;
4424;SDS011;2225;53.568;13.266;2023-12-07T11:06:09;60.20;;;26.23;;
4424;SDS011;2225;53.568;13.266;2023-12-07T11:08:41;57.70;;;25.50;;
4424;SDS011;2225;53.568;13.266;2023-12-07T11:11:21;57.33;;;24.30;;
4424;SDS011;2225;53.568;13.266;2023-12-07T11:14:05;48.60;;;22.80;;
4424;SDS011;2225;53.568;13.266;2023-12-07T11:16:40;53.57;;;25.30;;
4424;SDS011;2225;53.568;13.266;2023-12-07T11:22:00;55.83;;;24.27;;
4424;SDS011;2225;53.568;13.266;2023-12-07T11:24:32;53.77;;;24.37;;
4424;SDS011;2225;53.568;13.266;2023-12-07T11:26:59;53.03;;;23.10;;
4424;SDS011;2225;53.568;13.266;2023-12-07T11:29:30;56.07;;;23.43;;
4424;SDS011;2225;53.568;13.266;2023-12-07T11:32:01;59.00;;;24.57;;
4424;SDS011;2225;53.568;13.266;2023-12-07T11:34:39;61.13;;;25.63;;
4424;SDS011;2225;53.568;13.266;2023-12-07T11:37:13;54.27;;;23.40;;
4424;SDS011;2225;53.568;13.266;2023-12-07T11:39:43;48.70;;;22.03;;
4424;SDS011;2225;53.568;13.266;2023-12-07T11:42:16;51.97;;;23.13;;
4424;SDS011;2225;53.568;13.266;2023-12-07T11:44:47;53.57;;;23.20;;
4424;SDS011;2225;53.568;13.266;2023-12-07T11:47:16;57.27;;;23.90;;
4424;SDS011;2225;53.568;13.266;2023-12-07T11:49:45;47.80;;;22.40;;
4424;SDS011;2225;53.568;13.266;2023-12-07T11:52:16;59.43;;;23.93;;
4424;SDS011;2225;53.568;13.266;2023-12-07T11:54:47;51.70;;;21.77;;
4424;SDS011;2225;53.568;13.266;2023-12-07T11:57:16;53.50;;;23.33;;
4424;SDS011;2225;53.568;13.266;2023-12-07T11:59:44;54.57;;;22.20;;
4424;SDS011;2225;53.568;13.266;2023-12-07T12:02:13;51.23;;;22.90;;
4424;SDS011;2225;53.568;13.266;2023-12-07T12:04:41;52.70;;;24.10;;
4424;SDS011;2225;53.568;13.266;2023-12-07T12:07:08;51.73;;;23.03;;
4424;SDS011;2225;53.568;13.266;2023-12-07T12:09:35;51.40;;;21.37;;
4424;SDS011;2225;53.568;13.266;2023-12-07T12:12:02;46.83;;;21.70;;
4424;SDS011;2225;53.568;13.266;2023-12-07T12:14:29;52.10;;;23.63;;
4424;SDS011;2225;53.568;13.266;2023-12-07T12:16:57;55.03;;;22.10;;
4424;SDS011;2225;53.568;13.266;2023-12-07T12:19:24;55.87;;;23.87;;
4424;SDS011;2225;53.568;13.266;2023-12-07T12:22:02;49.60;;;22.20;;
4424;SDS011;2225;53.568;13.266;2023-12-07T12:24:33;61.00;;;25.20;;
4424;SDS011;2225;53.568;13.266;2023-12-07T12:27:04;56.60;;;24.63;;
4424;SDS011;2225;53.568;13.266;2023-12-07T12:29:31;58.90;;;24.23;;
4424;SDS011;2225;53.568;13.266;2023-12-07T12:32:01;50.50;;;24.17;;
4424;SDS011;2225;53.568;13.266;2023-12-07T12:34:30;55.27;;;24.57;;
4424;SDS011;2225;53.568;13.266;2023-12-07T12:37:00;52.47;;;23.40;;
4424;SDS011;2225;53.568;13.266;2023-12-07T12:39:28;59.00;;;25.10;;
4424;SDS011;2225;53.568;13.266;2023-12-07T12:42:00;52.40;;;24.53;;
4424;SDS011;2225;53.568;13.266;2023-12-07T12:44:30;59.33;;;25.13;;
4424;SDS011;2225;53.568;13.266;2023-12-07T12:47:06;54.10;;;25.10;;
4424;SDS011;2225;53.568;13.266;2023-12-07T12:49:41;56.80;;;25.53;;
4424;SDS011;2225;53.568;13.266;2023-12-07T12:52:11;58.10;;;24.73;;
4424;SDS011;2225;53.568;13.266;2023-12-07T12:54:44;60.67;;;24.73;;
4424;SDS011;2225;53.568;13.266;2023-12-07T12:57:13;55.77;;;24.20;;
4424;SDS011;2225;53.568;13.266;2023-12-07T12:59:40;57.60;;;26.33;;
4424;SDS011;2225;53.568;13.266;2023-12-07T13:02:07;59.50;;;24.93;;
4424;SDS011;2225;53.568;13.266;2023-12-07T13:04:35;66.87;;;25.97;;
4424;SDS011;2225;53.568;13.266;2023-12-07T13:07:07;54.97;;;24.40;;
4424;SDS011;2225;53.568;13.266;2023-12-07T13:09:35;55.20;;;24.20;;
4424;SDS011;2225;53.568;13.266;2023-12-07T13:12:02;55.60;;;24.47;;
4424;SDS011;2225;53.568;13.266;2023-12-07T13:14:31;60.20;;;25.60;;
4424;SDS011;2225;53.568;13.266;2023-12-07T13:17:04;58.03;;;24.10;;
4424;SDS011;2225;53.568;13.266;2023-12-07T13:19:34;58.57;;;24.47;;
4424;SDS011;2225;53.568;13.266;2023-12-07T13:22:02;53.70;;;25.03;;
4424;SDS011;2225;53.568;13.266;2023-12-07T13:24:29;54.40;;;23.97;;
4424;SDS011;2225;53.568;13.266;2023-12-07T13:26:57;64.93;;;25.87;;
4424;SDS011;2225;53.568;13.266;2023-12-07T13:29:26;65.93;;;25.70;;
4424;SDS011;2225;53.568;13.266;2023-12-07T13:32:01;59.63;;;24.97;;
4424;SDS011;2225;53.568;13.266;2023-12-07T13:34:30;66.00;;;25.80;;
4424;SDS011;2225;53.568;13.266;2023-12-07T13:36:57;55.63;;;24.73;;
4424;SDS011;2225;53.568;13.266;2023-12-07T13:39:24;64.13;;;26.40;;
4424;SDS011;2225;53.568;13.266;2023-12-07T13:41:57;65.53;;;25.43;;
4424;SDS011;2225;53.568;13.266;2023-12-07T13:44:27;65.93;;;27.30;;
4424;SDS011;2225;53.568;13.266;2023-12-07T13:46:55;61.70;;;25.63;;
4424;SDS011;2225;53.568;13.266;2023-12-07T13:49:23;55.80;;;25.40;;
4424;SDS011;2225;53.568;13.266;2023-12-07T13:51:59;62.57;;;26.27;;
4424;SDS011;2225;53.568;13.266;2023-12-07T13:54:34;66.40;;;25.80;;
4424;SDS011;2225;53.568;13.266;2023-12-07T13:57:19;60.87;;;27.13;;
4424;SDS011;2225;53.568;13.266;2023-12-07T13:59:47;67.07;;;26.97;;
4424;SDS011;2225;53.568;13.266;2023-12-07T14:02:14;67.60;;;28.30;;
4424;SDS011;2225;53.568;13.266;2023-12-07T14:04:41;56.27;;;25.37;;
4424;SDS011;2225;53.568;13.266;2023-12-07T14:07:13;63.03;;;26.97;;
4424;SDS011;2225;53.568;13.266;2023-12-07T14:09:43;63.37;;;26.80;;
4424;SDS011;2225;53.568;13.266;2023-12-07T14:12:23;65.73;;;27.73;;
4424;SDS011;2225;53.568;13.266;2023-12-07T14:14:50;61.13;;;26.80;;
4424;SDS011;2225;53.568;13.266;2023-12-07T14:17:17;64.37;;;27.83;;
4424;SDS011;2225;53.568;13.266;2023-12-07T14:19:46;70.60;;;29.50;;
4424;SDS011;2225;53.568;13.266;2023-12-07T14:22:15;63.70;;;26.03;;
4424;SDS011;2225;53.568;13.266;2023-12-07T14:24:42;71.53;;;27.43;;
4424;SDS011;2225;53.568;13.266;2023-12-07T14:27:09;62.43;;;26.50;;
4424;SDS011;2225;53.568;13.266;2023-12-07T14:29:36;67.07;;;29.00;;
4424;SDS011;2225;53.568;13.266;2023-12-07T14:32:03;66.70;;;27.83;;
4424;SDS011;2225;53.568;13.266;2023-12-07T14:34:30;63.83;;;28.97;;
4424;SDS011;2225;53.568;13.266;2023-12-07T14:37:01;71.30;;;29.70;;
4424;SDS011;2225;53.568;13.266;2023-12-07T14:39:33;69.10;;;26.27;;
4424;SDS011;2225;53.568;13.266;2023-12-07T14:42:01;63.60;;;27.00;;
4424;SDS011;2225;53.568;13.266;2023-12-07T14:44:29;63.83;;;27.07;;